Time;durP1;ratioP1;P1;durP2;ratioP2;P2;SDS_P1;SDS_P2;PMS_P1;PMS_P2;Temp;Humidity;BMP_temperature;BMP_pressure;BME280_temperature;BME280_humidity;BME280_pressure;Samples;Min_cycle;Max_cycle;Signal;HPM_P1;HPM_P2
2021/12/12 00:01:15;;;;;;;;;;;;;;;7.19;50.70;99473.00;4476315;32;33956;-71
2021/12/12 00:03:48;;;;;;;;;;;;;;;6.90;52.06;99472.22;4470218;32;35450;-70
2021/12/12 00:06:17;;;;;;;;;;;;;;;7.48;47.82;99478.22;4468117;32;33168;-68
2021/12/12 00:08:47;;;;;;;;;;;;;;;6.77;50.48;99487.22;4474857;32;33339;-69
2021/12/12 00:11:15;;;;;;;;;;;;;;;7.22;50.52;99494.09;4470151;32;33916;-70
2021/12/12 00:13:45;;;;;;;;;;;;;;;7.28;48.43;99483.97;4478302;32;32574;-71
2021/12/12 00:16:14;;;;;;;;;;;;;;;7.46;47.40;99488.94;4473552;32;34494;-70
2021/12/12 00:18:41;;;;;;;;;;;;;;;7.85;47.01;99489.06;4467885;32;33703;-71
2021/12/12 00:21:10;;;;;;;;;;;;;;;7.97;47.15;99488.22;4471357;32;34778;-70
2021/12/12 00:23:37;;;;;;;;;;;;;;;8.04;46.57;99494.00;4473796;32;34447;-70
2021/12/12 00:26:05;;;;;;;;;;;;;;;7.37;48.21;99507.34;4473278;32;33060;-69
2021/12/12 00:28:33;;;;;;;;;;;;;;;7.70;48.88;99509.56;4472875;32;33103;-69
2021/12/12 00:31:07;;;;;;;;;;;;;;;7.42;48.04;99518.56;4475480;32;32906;-70
2021/12/12 00:33:40;;;;;;;;;;;;;;;7.94;45.82;99507.09;4469963;32;35363;-70
2021/12/12 00:36:09;;;;;;;;;;;;;;;7.34;49.13;99510.19;4468112;32;33618;-72
2021/12/12 00:38:37;;;;;;;;;;;;;;;6.25;53.06;99503.75;4470203;32;32314;-72
2021/12/12 00:41:06;;;;;;;;;;;;;;;6.21;51.82;99495.09;4456849;32;32840;-71
2021/12/12 00:43:35;;;;;;;;;;;;;;;7.30;48.10;99508.69;4466022;32;35462;-73
2021/12/12 00:46:03;;;;;;;;;;;;;;;7.41;47.95;99496.38;4466482;32;34341;-72
2021/12/12 00:48:31;;;;;;;;;;;;;;;7.17;48.58;99495.31;4469565;32;33548;-73
2021/12/12 00:50:58;;;;;;;;;;;;;;;7.26;48.67;99489.41;4454316;32;34880;-73
2021/12/12 00:53:26;;;;;;;;;;;;;;;6.86;49.68;99499.09;4466793;32;34186;-74
2021/12/12 00:55:53;;;;;;;;;;;;;;;6.89;48.38;99496.22;4473075;32;35448;-72
2021/12/12 00:58:21;;;;;;;;;;;;;;;6.37;50.89;99496.84;4472436;32;33758;-72
2021/12/12 01:00:51;;;;;;;;;;;;;;;6.45;50.10;99495.44;4474858;32;32861;-71
2021/12/12 01:03:22;;;;;;;;;;;;;;;5.91;51.58;99497.78;4469330;32;33495;-72
2021/12/12 01:05:50;;;;;;;;;;;;;;;5.74;53.69;99493.44;4469628;32;34772;-69
2021/12/12 01:08:17;;;;;;;;;;;;;;;6.04;51.07;99506.75;4475620;32;34694;-69
2021/12/12 01:10:49;;;;;;;;;;;;;;;4.58;53.73;99508.84;4470981;32;34113;-70
2021/12/12 01:13:16;;;;;;;;;;;;;;;4.86;55.12;99521.47;4467136;32;33019;-74
2021/12/12 01:15:50;;;;;;;;;;;;;;;4.74;54.38;99516.81;4455603;32;33931;-73
2021/12/12 01:18:20;;;;;;;;;;;;;;;5.20;54.11;99527.56;4467088;32;33521;-73
2021/12/12 01:20:51;;;;;;;;;;;;;;;5.43;51.70;99533.38;4468463;32;34192;-72
2021/12/12 01:23:30;;;;;;;;;;;;;;;5.13;54.17;99534.97;4470273;32;35234;-73
2021/12/12 01:25:58;;;;;;;;;;;;;;;5.93;51.24;99543.72;4452830;32;35279;-71
2021/12/12 01:28:27;;;;;;;;;;;;;;;5.95;53.75;99538.34;4467488;32;33006;-75
2021/12/12 01:30:55;;;;;;;;;;;;;;;6.06;53.53;99539.41;4476658;32;34113;-73
2021/12/12 01:33:36;;;;;;;;;;;;;;;6.43;51.85;99539.00;4457715;32;34392;-71
2021/12/12 01:36:08;;;;;;;;;;;;;;;6.00;52.73;99539.78;4472528;32;35280;-73
2021/12/12 01:38:53;;;;;;;;;;;;;;;5.84;51.41;99533.59;4466838;32;33809;-71
2021/12/12 01:41:25;;;;;;;;;;;;;;;5.86;52.68;99536.19;4470061;32;33888;-72
2021/12/12 01:43:54;;;;;;;;;;;;;;;5.55;51.63;99551.22;4461758;32;34104;-71
2021/12/12 01:46:34;;;;;;;;;;;;;;;5.93;54.54;99553.50;4468876;32;33983;-75
2021/12/12 01:49:10;;;;;;;;;;;;;;;5.78;52.10;99547.28;4452990;32;34865;-74
2021/12/12 01:51:38;;;;;;;;;;;;;;;6.57;50.34;99554.94;4466629;32;34144;-75
2021/12/12 01:54:07;;;;;;;;;;;;;;;6.22;51.70;99554.44;4456787;32;34347;-75
2021/12/12 01:56:39;;;;;;;;;;;;;;;6.23;50.39;99554.34;4462156;32;32928;-74
2021/12/12 01:59:07;;;;;;;;;;;;;;;6.82;49.20;99558.78;4456972;32;32385;-75
2021/12/12 02:01:36;;;;;;;;;;;;;;;6.48;49.06;99555.50;4457623;32;35653;-76
2021/12/12 02:04:06;;;;;;;;;;;;;;;6.69;50.23;99553.34;4474238;32;34270;-75
2021/12/12 02:06:33;;;;;;;;;;;;;;;6.43;49.64;99555.81;4467902;32;34293;-74
2021/12/12 02:09:01;;;;;;;;;;;;;;;6.82;48.16;99551.63;4453082;32;35107;-76
2021/12/12 02:11:30;;;;;;;;;;;;;;;6.29;51.33;99559.31;4465080;32;33390;-76
2021/12/12 02:13:59;;;;;;;;;;;;;;;6.61;49.74;99551.16;4456589;32;33229;-75
2021/12/12 02:16:27;;;;;;;;;;;;;;;6.98;47.38;99536.41;4472376;32;32594;-75
2021/12/12 02:18:57;;;;;;;;;;;;;;;7.08;50.75;99541.16;4457287;32;34702;-76
2021/12/12 02:21:34;;;;;;;;;;;;;;;6.10;50.25;99536.56;4463155;32;34148;-75
2021/12/12 02:35:24;;;;;;;;;;;;;;;5.73;50.93;99520.13;4475816;32;32966;-72
2021/12/12 02:37:52;;;;;;;;;;;;;;;5.69;51.36;99521.25;4474052;32;33820;-70
2021/12/12 02:40:21;;;;;;;;;;;;;;;5.40;52.90;99521.13;4453236;32;32220;-72
2021/12/12 02:42:49;;;;;;;;;;;;;;;5.39;53.63;99511.44;4452508;32;34219;-71
2021/12/12 02:45:18;;;;;;;;;;;;;;;5.09;54.66;99524.62;4459681;32;35439;-74
2021/12/12 02:47:48;;;;;;;;;;;;;;;5.54;51.09;99513.22;4460031;32;34362;-71
2021/12/12 02:50:19;;;;;;;;;;;;;;;5.67;50.56;99520.47;4473060;32;31854;-73
2021/12/12 02:52:49;;;;;;;;;;;;;;;5.02;52.86;99517.97;4470144;32;32962;-72
2021/12/12 02:55:18;;;;;;;;;;;;;;;5.59;52.27;99524.44;4472138;32;34045;-72
2021/12/12 02:57:46;;;;;;;;;;;;;;;6.07;50.62;99530.50;4466107;32;34461;-73
2021/12/12 03:00:15;;;;;;;;;;;;;;;5.82;51.15;99540.81;4467639;32;33713;-72
2021/12/12 03:02:46;;;;;;;;;;;;;;;5.57;51.45;99541.38;4470019;32;35337;-71
2021/12/12 03:05:14;;;;;;;;;;;;;;;6.14;50.99;99543.41;4470414;32;34223;-74
2021/12/12 03:07:42;;;;;;;;;;;;;;;6.27;49.45;99545.25;4465567;32;34601;-74
2021/12/12 03:10:11;;;;;;;;;;;;;;;5.89;49.71;99541.31;4465434;32;33422;-75
2021/12/12 03:12:39;;;;;;;;;;;;;;;5.93;51.34;99546.38;4473287;32;34187;-75
2021/12/12 03:15:20;;;;;;;;;;;;;;;6.01;51.29;99538.81;4471910;32;32654;-76
2021/12/12 03:17:48;;;;;;;;;;;;;;;6.28;49.48;99535.47;4454349;32;34200;-76
2021/12/12 03:20:23;;;;;;;;;;;;;;;5.35;53.31;99531.97;4478479;32;33633;-75
2021/12/12 03:22:56;;;;;;;;;;;;;;;5.18;53.23;99540.03;4473622;32;35019;-76
2021/12/12 03:25:24;;;;;;;;;;;;;;;5.96;51.88;99555.97;4457657;32;35262;-77
2021/12/12 03:27:53;;;;;;;;;;;;;;;5.95;51.49;99552.47;4473222;32;35050;-77
2021/12/12 03:30:20;;;;;;;;;;;;;;;6.19;49.27;99547.50;4467879;32;32310;-76
2021/12/12 03:32:48;;;;;;;;;;;;;;;6.31;48.02;99551.22;4455482;32;33457;-76
2021/12/12 03:35:16;;;;;;;;;;;;;;;6.33;48.75;99557.31;4473394;32;33839;-77
2021/12/12 03:37:43;;;;;;;;;;;;;;;5.93;49.29;99564.97;4466898;32;34153;-77
2021/12/12 03:40:31;;;;;;;;;;;;;;;6.79;48.01;99575.78;4452321;32;33732;-77
2021/12/12 03:42:59;;;;;;;;;;;;;;;6.15;48.76;99575.19;4466688;32;32723;-76
2021/12/12 03:45:27;;;;;;;;;;;;;;;6.68;47.94;99567.63;4472854;32;34297;-76
2021/12/12 03:47:58;;;;;;;;;;;;;;;5.61;50.53;99582.75;4457432;32;33919;-75
2021/12/12 03:50:31;;;;;;;;;;;;;;;5.72;50.41;99590.13;4471491;32;32059;-75
2021/12/12 03:52:58;;;;;;;;;;;;;;;5.68;50.97;99583.25;4472526;32;34633;-75
2021/12/12 03:55:26;;;;;;;;;;;;;;;6.18;50.14;99585.66;4473325;32;34231;-77
2021/12/12 03:57:53;;;;;;;;;;;;;;;5.40;51.68;99584.81;4467884;32;34384;-76
2021/12/12 04:00:30;;;;;;;;;;;;;;;5.99;49.36;99574.41;4468803;32;33745;-77
2021/12/12 04:02:58;;;;;;;;;;;;;;;5.92;50.28;99589.81;4460819;32;34306;-76
2021/12/12 04:05:25;;;;;;;;;;;;;;;5.90;51.51;99597.00;4460551;32;34412;-79
2021/12/12 04:07:53;;;;;;;;;;;;;;;6.06;50.58;99597.00;4463196;32;34214;-80
2021/12/12 04:10:23;;;;;;;;;;;;;;;5.75;49.20;99597.91;4479305;32;33693;-79
2021/12/12 04:12:52;;;;;;;;;;;;;;;6.67;47.56;99603.97;4459195;32;33099;-78
2021/12/12 04:15:20;;;;;;;;;;;;;;;6.41;48.86;99604.69;4458608;32;33075;-80
2021/12/12 04:17:47;;;;;;;;;;;;;;;6.25;48.19;99600.28;4456837;32;34108;-77
2021/12/12 04:20:17;;;;;;;;;;;;;;;5.33;52.42;99610.84;4474374;32;33720;-81
2021/12/12 04:22:45;;;;;;;;;;;;;;;6.43;49.67;99608.12;4476222;32;33881;-77
2021/12/12 04:25:12;;;;;;;;;;;;;;;6.41;49.13;99604.69;4474669;32;33119;-78
2021/12/12 04:27:40;;;;;;;;;;;;;;;6.46;49.26;99607.94;4456694;32;35373;-77
2021/12/12 04:30:08;;;;;;;;;;;;;;;6.29;47.90;99612.47;4455526;32;34514;-83
2021/12/12 04:32:35;;;;;;;;;;;;;;;6.26;47.79;99620.63;4447374;32;34819;-77
2021/12/12 04:35:05;;;;;;;;;;;;;;;6.28;51.77;99628.50;4472157;32;32600;-78
2021/12/12 04:37:36;;;;;;;;;;;;;;;5.90;49.22;99625.38;4453603;32;34134;-76
2021/12/12 04:40:05;;;;;;;;;;;;;;;5.32;50.24;99619.72;4472624;32;33238;-78
2021/12/12 04:42:33;;;;;;;;;;;;;;;5.69;52.01;99624.81;4443245;32;34962;-82
2021/12/12 04:45:20;;;;;;;;;;;;;;;6.10;50.75;99619.81;4475638;32;33056;-82
2021/12/12 04:51:01;;;;;;;;;;;;;;;5.86;52.10;99639.78;4460540;32;32192;-80
2021/12/12 04:53:28;;;;;;;;;;;;;;;6.00;50.36;99630.13;4464782;32;34988;-77
2021/12/12 04:56:06;;;;;;;;;;;;;;;5.90;49.28;99626.22;4473279;32;34435;-79
2021/12/12 04:58:35;;;;;;;;;;;;;;;5.78;51.55;99637.56;4454880;32;35402;-85
2021/12/12 05:01:05;;;;;;;;;;;;;;;6.21;48.57;99629.81;4461261;32;33612;-79
2021/12/12 05:03:55;;;;;;;;;;;;;;;6.64;48.39;99628.09;4438315;32;34114;-77
2021/12/12 05:06:34;;;;;;;;;;;;;;;5.32;50.34;99629.50;4455524;32;34359;-78
2021/12/12 05:09:06;;;;;;;;;;;;;;;4.97;52.18;99634.06;4452766;32;35088;-77
2021/12/12 05:11:36;;;;;;;;;;;;;;;5.91;50.30;99630.59;4467525;32;33730;-77
2021/12/12 05:14:06;;;;;;;;;;;;;;;5.68;49.37;99631.03;4458362;32;32805;-78
2021/12/12 05:16:35;;;;;;;;;;;;;;;5.05;51.49;99638.03;4456341;32;33470;-77
2021/12/12 05:19:07;;;;;;;;;;;;;;;5.09;50.77;99638.72;4451294;32;35122;-77
2021/12/12 05:21:35;;;;;;;;;;;;;;;4.97;50.12;99640.22;4458752;32;33682;-78
2021/12/12 05:24:04;;;;;;;;;;;;;;;5.66;48.34;99628.50;4457142;32;33951;-78
2021/12/12 05:26:43;;;;;;;;;;;;;;;5.91;48.00;99641.22;4453735;32;34919;-78
2021/12/12 05:29:13;;;;;;;;;;;;;;;6.15;47.62;99636.31;4460299;32;34460;-79
2021/12/12 05:31:45;;;;;;;;;;;;;;;6.73;45.27;99634.66;4457241;32;34400;-78
2021/12/12 05:34:13;;;;;;;;;;;;;;;6.85;46.96;99627.75;4462051;32;34060;-79
2021/12/12 05:36:40;;;;;;;;;;;;;;;6.79;46.45;99634.28;4461105;32;34247;-79
2021/12/12 05:39:07;;;;;;;;;;;;;;;7.33;44.75;99644.28;4460697;32;33457;-78
2021/12/12 05:41:35;;;;;;;;;;;;;;;7.27;47.60;99644.66;4453427;32;34440;-78
2021/12/12 05:44:03;;;;;;;;;;;;;;;7.17;44.90;99639.91;4472694;32;34957;-77
2021/12/12 05:46:30;;;;;;;;;;;;;;;7.54;43.69;99644.72;4459273;32;34194;-77
2021/12/12 05:49:00;;;;;;;;;;;;;;;7.58;44.80;99648.91;4471955;32;34166;-77
2021/12/12 05:51:28;;;;;;;;;;;;;;;8.14;42.51;99650.53;4459074;32;35223;-79
2021/12/12 05:53:59;;;;;;;;;;;;;;;7.04;46.08;99638.97;4456719;32;34170;-74
2021/12/12 05:56:28;;;;;;;;;;;;;;;8.02;44.31;99635.34;4457419;32;32835;-76
2021/12/12 05:58:55;;;;;;;;;;;;;;;8.22;42.36;99646.50;4475365;32;34894;-76
2021/12/12 06:01:23;;;;;;;;;;;;;;;8.29;41.60;99642.50;4466532;32;32520;-75
2021/12/12 06:03:52;;;;;;;;;;;;;;;8.08;43.13;99648.28;4456391;32;33532;-76
2021/12/12 06:06:30;;;;;;;;;;;;;;;7.83;43.90;99641.06;4452552;32;34021;-76
2021/12/12 06:08:58;;;;;;;;;;;;;;;8.00;43.11;99647.94;4446323;32;35369;-76
2021/12/12 06:11:26;;;;;;;;;;;;;;;7.91;44.20;99638.72;4455506;32;32293;-76
2021/12/12 06:13:54;;;;;;;;;;;;;;;6.57;45.61;99640.06;4457766;32;35223;-74
2021/12/12 06:16:22;;;;;;;;;;;;;;;6.80;46.61;99643.13;4459100;32;33906;-74
2021/12/12 06:18:56;;;;;;;;;;;;;;;6.56;47.26;99642.81;4472330;32;35169;-74
2021/12/12 06:21:24;;;;;;;;;;;;;;;6.64;48.58;99644.03;4456330;32;32252;-75
2021/12/12 06:23:51;;;;;;;;;;;;;;;6.16;47.32;99653.97;4470513;32;32737;-78
2021/12/12 06:26:20;;;;;;;;;;;;;;;5.72;50.73;99653.84;4474392;32;34470;-77
2021/12/12 06:28:48;;;;;;;;;;;;;;;5.74;49.39;99658.09;4457656;32;34511;-77
2021/12/12 06:31:15;;;;;;;;;;;;;;;6.11;47.75;99657.87;4462440;32;34243;-77
2021/12/12 06:33:43;;;;;;;;;;;;;;;5.65;48.80;99661.31;4458677;32;32859;-77
2021/12/12 06:36:12;;;;;;;;;;;;;;;5.12;49.31;99676.53;4464893;32;34028;-78
2021/12/12 06:38:40;;;;;;;;;;;;;;;5.12;53.92;99679.19;4465252;32;32971;-77
2021/12/12 06:41:08;;;;;;;;;;;;;;;5.81;50.12;99675.44;4460801;32;33629;-77
2021/12/12 06:43:36;;;;;;;;;;;;;;;6.24;49.00;99678.31;4452586;32;33992;-78
2021/12/12 06:46:04;;;;;;;;;;;;;;;6.18;47.70;99683.13;4452486;32;34369;-77
2021/12/12 06:48:32;;;;;;;;;;;;;;;5.76;47.80;99676.62;4469579;32;33903;-77
2021/12/12 06:51:01;;;;;;;;;;;;;;;6.32;47.03;99679.66;4458304;32;34522;-77
2021/12/12 06:53:29;;;;;;;;;;;;;;;6.16;48.59;99682.34;4477338;32;34180;-78
2021/12/12 06:55:57;;;;;;;;;;;;;;;6.12;47.45;99686.13;4456878;32;34022;-78
2021/12/12 06:58:25;;;;;;;;;;;;;;;6.64;46.16;99677.78;4465927;32;34537;-78
2021/12/12 07:00:54;;;;;;;;;;;;;;;5.69;50.83;99681.44;4459601;32;33646;-77
2021/12/12 07:03:22;;;;;;;;;;;;;;;6.18;48.08;99688.44;4472397;32;35128;-75
2021/12/12 07:05:49;;;;;;;;;;;;;;;6.49;48.09;99687.53;4471244;32;35425;-76
2021/12/12 07:08:17;;;;;;;;;;;;;;;6.70;45.63;99686.22;4459589;32;34406;-76
2021/12/12 07:10:44;;;;;;;;;;;;;;;6.42;45.78;99694.13;4470643;32;34401;-76
2021/12/12 07:13:12;;;;;;;;;;;;;;;6.59;45.28;99680.72;4471269;32;34116;-77
2021/12/12 07:15:41;;;;;;;;;;;;;;;7.40;43.29;99696.19;4467628;32;35268;-76
2021/12/12 07:18:10;;;;;;;;;;;;;;;7.24;46.36;99690.97;4457043;32;35170;-76
2021/12/12 07:20:37;;;;;;;;;;;;;;;7.66;43.34;99682.06;4477470;32;33604;-77
2021/12/12 07:23:06;;;;;;;;;;;;;;;8.02;44.50;99687.81;4473511;32;34056;-75
2021/12/12 07:25:34;;;;;;;;;;;;;;;7.58;44.84;99687.06;4470413;32;34916;-76
2021/12/12 07:28:01;;;;;;;;;;;;;;;8.32;43.10;99684.94;4473259;32;32857;-76
2021/12/12 07:30:29;;;;;;;;;;;;;;;8.01;42.89;99676.28;4456168;32;33188;-76
2021/12/12 07:32:58;;;;;;;;;;;;;;;7.87;43.16;99689.66;4454409;32;34950;-76
2021/12/12 07:35:26;;;;;;;;;;;;;;;7.34;45.68;99673.47;4464542;32;33922;-77
2021/12/12 07:37:53;;;;;;;;;;;;;;;7.88;45.05;99686.91;4451818;32;34520;-76
2021/12/12 07:40:21;;;;;;;;;;;;;;;7.98;43.05;99681.81;4466255;32;34602;-76
2021/12/12 07:42:49;;;;;;;;;;;;;;;7.98;43.22;99680.97;4471570;32;34896;-76
2021/12/12 07:45:16;;;;;;;;;;;;;;;7.71;44.95;99684.47;4457785;32;34244;-77
2021/12/12 07:47:44;;;;;;;;;;;;;;;8.22;42.57;99675.81;4468540;32;34185;-75
2021/12/12 07:50:12;;;;;;;;;;;;;;;7.87;46.23;99681.69;4457724;32;33227;-74
2021/12/12 07:52:40;;;;;;;;;;;;;;;8.18;44.84;99688.50;4463769;32;33997;-75
2021/12/12 07:55:07;;;;;;;;;;;;;;;8.47;41.77;99694.59;4458297;32;35229;-77
2021/12/12 07:57:35;;;;;;;;;;;;;;;7.45;45.58;99694.97;4454444;32;34476;-76
2021/12/12 08:00:05;;;;;;;;;;;;;;;8.00;41.28;99689.72;4457249;32;32479;-76
2021/12/12 08:02:39;;;;;;;;;;;;;;;8.36;41.06;99697.97;4470498;32;35230;-76
2021/12/12 08:05:07;;;;;;;;;;;;;;;8.94;42.37;99697.69;4471213;32;35383;-77
2021/12/12 08:07:34;;;;;;;;;;;;;;;8.81;41.00;99692.34;4475084;32;34254;-76
2021/12/12 08:10:02;;;;;;;;;;;;;;;9.09;40.24;99691.31;4457669;32;34619;-75
2021/12/12 08:12:29;;;;;;;;;;;;;;;9.21;40.92;99692.25;4469462;32;32845;-76
2021/12/12 08:14:57;;;;;;;;;;;;;;;9.37;38.97;99698.22;4459957;32;35125;-76
2021/12/12 08:17:24;;;;;;;;;;;;;;;8.75;40.31;99700.75;4475612;32;35284;-75
2021/12/12 08:19:52;;;;;;;;;;;;;;;7.87;42.66;99703.84;4457810;32;33688;-77
2021/12/12 08:22:19;;;;;;;;;;;;;;;8.94;41.52;99714.56;4455009;32;35003;-78
2021/12/12 08:24:46;;;;;;;;;;;;;;;8.69;42.48;99702.03;4462472;32;35286;-78
2021/12/12 08:27:14;;;;;;;;;;;;;;;7.89;42.44;99706.41;4454964;32;34012;-76
2021/12/12 08:29:41;;;;;;;;;;;;;;;8.39;41.71;99723.62;4461414;32;33580;-76
2021/12/12 08:32:10;;;;;;;;;;;;;;;9.27;40.57;99719.37;4472286;32;34259;-75
2021/12/12 08:34:57;;;;;;;;;;;;;;;9.61;40.98;99725.03;4454420;32;34431;-77
2021/12/12 08:37:28;;;;;;;;;;;;;;;9.92;40.11;99715.69;4446477;32;34756;-76
2021/12/12 08:39:56;;;;;;;;;;;;;;;10.91;36.95;99720.81;4469131;32;33767;-76
2021/12/12 08:42:26;;;;;;;;;;;;;;;9.63;38.18;99714.22;4457555;32;34321;-78
2021/12/12 08:44:55;;;;;;;;;;;;;;;10.45;37.62;99729.63;4463519;32;34553;-76
2021/12/12 08:47:23;;;;;;;;;;;;;;;9.70;38.20;99711.00;4456897;32;34272;-77
2021/12/12 08:49:51;;;;;;;;;;;;;;;10.30;36.54;99721.88;4461590;32;33447;-77
2021/12/12 08:52:22;;;;;;;;;;;;;;;9.48;40.76;99710.84;4469659;32;34075;-77
2021/12/12 08:54:50;;;;;;;;;;;;;;;9.30;40.22;99715.62;4475139;32;34128;-78
2021/12/12 08:57:23;;;;;;;;;;;;;;;10.42;38.93;99721.81;4456879;32;34451;-77
2021/12/12 08:59:51;;;;;;;;;;;;;;;10.03;36.92;99718.41;4468096;32;32315;-77
2021/12/12 09:02:18;;;;;;;;;;;;;;;10.60;36.71;99721.41;4459790;32;34303;-77
2021/12/12 09:04:53;;;;;;;;;;;;;;;11.66;34.44;99712.25;4449677;32;34696;-78
2021/12/12 09:07:21;;;;;;;;;;;;;;;10.68;35.41;99706.47;4460137;32;34195;-77
2021/12/12 09:10:07;;;;;;;;;;;;;;;11.70;35.62;99709.31;4478478;32;33742;-77
2021/12/12 09:12:39;;;;;;;;;;;;;;;11.40;35.49;99700.91;4473476;32;34275;-77
2021/12/12 09:15:27;;;;;;;;;;;;;;;11.03;35.37;99702.06;4474282;32;35220;-77
2021/12/12 09:17:58;;;;;;;;;;;;;;;10.09;39.13;99702.88;4447958;32;34225;-77
2021/12/12 09:20:33;;;;;;;;;;;;;;;10.61;36.17;99707.91;4475160;32;33474;-77
2021/12/12 09:23:06;;;;;;;;;;;;;;;12.15;34.26;99694.03;4473394;32;33813;-77
2021/12/12 09:25:37;;;;;;;;;;;;;;;12.00;33.71;99688.09;4462326;32;34474;-77
2021/12/12 09:28:07;;;;;;;;;;;;;;;11.30;34.73;99691.91;4462077;32;34180;-77
2021/12/12 09:30:35;;;;;;;;;;;;;;;10.82;35.14;99675.09;4460573;32;33728;-79
2021/12/12 09:33:04;;;;;;;;;;;;;;;10.75;35.85;99693.47;4475006;32;35095;-79
2021/12/12 09:35:52;;;;;;;;;;;;;;;9.24;38.81;99686.69;4468899;32;34866;-79
2021/12/12 09:38:22;;;;;;;;;;;;;;;9.87;37.96;99677.72;4461407;32;34461;-78
2021/12/12 09:41:10;;;;;;;;;;;;;;;10.24;38.19;99681.22;4465010;32;32632;-76
2021/12/12 09:43:37;;;;;;;;;;;;;;;10.36;37.01;99689.31;4462546;32;34145;-77
2021/12/12 09:46:06;;;;;;;;;;;;;;;11.39;34.74;99684.94;4469426;32;34330;-75
2021/12/12 09:51:47;;;;;;;;;;;;;;;11.00;35.30;99680.87;4476774;32;33605;-77
2021/12/12 09:54:26;;;;;;;;;;;;;;;11.04;37.11;99683.19;4461393;32;32687;-77
2021/12/12 09:56:59;;;;;;;;;;;;;;;10.39;38.02;99689.94;4475247;32;34356;-78
2021/12/12 09:59:31;;;;;;;;;;;;;;;10.87;36.69;99695.22;4466735;32;32918;-78
2021/12/12 10:02:05;;;;;;;;;;;;;;;10.24;38.32;99680.34;4475240;32;34220;-80
2021/12/12 10:04:39;;;;;;;;;;;;;;;10.40;36.64;99686.31;4472889;32;34142;-79
2021/12/12 10:07:11;;;;;;;;;;;;;;;10.70;36.94;99667.06;4469599;32;34196;-79
2021/12/12 10:09:43;;;;;;;;;;;;;;;11.13;36.55;99684.31;4460040;32;34488;-77
2021/12/12 10:12:21;;;;;;;;;;;;;;;10.30;37.42;99706.66;4465111;32;33654;-77
2021/12/12 10:14:48;;;;;;;;;;;;;;;11.06;36.10;99693.81;4474941;32;34151;-77
2021/12/12 10:17:16;;;;;;;;;;;;;;;11.34;35.26;99690.69;4474930;32;33950;-77
2021/12/12 10:19:43;;;;;;;;;;;;;;;11.78;36.28;99697.00;4463810;32;34463;-79
2021/12/12 10:22:11;;;;;;;;;;;;;;;11.31;35.95;99682.88;4467993;32;34221;-78
2021/12/12 10:24:52;;;;;;;;;;;;;;;12.43;33.63;99692.62;4475493;32;35068;-78
2021/12/12 10:27:39;;;;;;;;;;;;;;;11.60;34.43;99687.75;4454371;32;35103;-79
2021/12/12 10:30:26;;;;;;;;;;;;;;;11.89;34.66;99693.47;4475548;32;34297;-77
2021/12/12 10:32:57;;;;;;;;;;;;;;;11.74;35.56;99695.53;4471734;32;34258;-78
2021/12/12 10:35:27;;;;;;;;;;;;;;;11.48;35.87;99705.66;4471130;32;33035;-77
2021/12/12 10:38:06;;;;;;;;;;;;;;;10.91;35.59;99695.81;4459898;32;34026;-77
2021/12/12 10:40:33;;;;;;;;;;;;;;;11.63;35.54;99690.19;4459250;32;34333;-76
2021/12/12 10:43:03;;;;;;;;;;;;;;;11.34;36.72;99697.88;4467163;32;33682;-77
2021/12/12 10:45:37;;;;;;;;;;;;;;;10.32;36.63;99707.41;4454621;32;33915;-75
2021/12/12 10:48:09;;;;;;;;;;;;;;;10.84;37.92;99663.31;4453908;32;34254;-76
2021/12/12 10:50:42;;;;;;;;;;;;;;;10.77;37.04;99686.19;4457700;32;34568;-78
2021/12/12 10:53:16;;;;;;;;;;;;;;;10.73;37.04;99688.25;4455619;32;33404;-75
2021/12/12 10:55:47;;;;;;;;;;;;;;;11.48;36.56;99692.25;4475834;32;34158;-76
2021/12/12 10:58:14;;;;;;;;;;;;;;;12.46;33.68;99689.69;4476654;32;34190;-75
2021/12/12 11:00:47;;;;;;;;;;;;;;;12.11;35.87;99673.81;4473471;32;34571;-76
2021/12/12 11:03:20;;;;;;;;;;;;;;;11.67;37.65;99686.28;4469778;32;34281;-76
2021/12/12 11:05:51;;;;;;;;;;;;;;;13.24;32.14;99680.34;4464802;32;33930;-75
2021/12/12 11:08:22;;;;;;;;;;;;;;;13.54;30.73;99691.25;4458131;32;34378;-76
2021/12/12 11:11:08;;;;;;;;;;;;;;;13.57;31.17;99688.28;4472983;32;34590;-76
2021/12/12 11:13:41;;;;;;;;;;;;;;;12.63;32.64;99682.03;4467616;32;33928;-78
2021/12/12 11:16:11;;;;;;;;;;;;;;;11.54;34.56;99685.56;4474214;32;34275;-76
2021/12/12 11:19:05;;;;;;;;;;;;;;;11.70;35.51;99690.56;4463120;32;34304;-75
2021/12/12 11:21:37;;;;;;;;;;;;;;;11.33;35.02;99664.88;4469363;32;33218;-75
2021/12/12 11:24:14;;;;;;;;;;;;;;;11.67;35.92;99678.25;4473530;32;34666;-75
2021/12/12 11:26:52;;;;;;;;;;;;;;;9.92;37.70;99675.56;4445939;32;34353;-75
2021/12/12 11:29:24;;;;;;;;;;;;;;;9.34;39.41;99677.06;4461031;32;34946;-75
2021/12/12 11:31:55;;;;;;;;;;;;;;;9.08;41.30;99684.22;4456429;32;34440;-75
2021/12/12 11:34:42;;;;;;;;;;;;;;;8.87;40.02;99673.25;4469734;32;34675;-76
2021/12/12 11:37:31;;;;;;;;;;;;;;;8.24;42.14;99672.09;4463217;32;34291;-75
2021/12/12 11:40:20;;;;;;;;;;;;;;;7.75;44.58;99677.12;4468627;32;34234;-77
2021/12/12 11:43:04;;;;;;;;;;;;;;;7.82;43.22;99649.97;4463509;32;33139;-76
2021/12/12 11:45:38;;;;;;;;;;;;;;;7.36;43.71;99658.25;4456294;32;33546;-76
2021/12/12 11:48:13;;;;;;;;;;;;;;;8.28;43.58;99640.75;4460193;32;34248;-77
2021/12/12 11:50:47;;;;;;;;;;;;;;;7.92;44.27;99658.22;4475800;32;34175;-76
2021/12/12 11:53:22;;;;;;;;;;;;;;;7.78;43.67;99675.13;4471412;32;34507;-76
2021/12/12 11:56:00;;;;;;;;;;;;;;;7.11;44.72;99658.94;4454205;32;32484;-78
2021/12/12 11:58:38;;;;;;;;;;;;;;;6.47;46.37;99660.16;4444402;32;35369;-78
2021/12/12 12:01:09;;;;;;;;;;;;;;;6.73;46.05;99662.12;4460845;32;34329;-79
2021/12/12 12:03:55;;;;;;;;;;;;;;;6.63;45.62;99652.97;4471834;32;34260;-78
2021/12/12 12:06:23;;;;;;;;;;;;;;;6.89;45.29;99670.03;4461103;32;31927;-80
2021/12/12 12:09:03;;;;;;;;;;;;;;;6.70;46.10;99672.94;4455019;32;33989;-79
2021/12/12 12:11:43;;;;;;;;;;;;;;;6.45;46.78;99686.84;4474462;32;34374;-79
2021/12/12 12:14:27;;;;;;;;;;;;;;;6.78;46.84;99675.16;4471523;32;34096;-79
2021/12/12 12:17:21;;;;;;;;;;;;;;;6.97;46.38;99680.22;4470995;32;33682;-79
2021/12/12 12:20:07;;;;;;;;;;;;;;;7.06;46.33;99666.31;4471130;32;34107;-79
2021/12/12 12:22:45;;;;;;;;;;;;;;;7.19;45.85;99677.94;4446375;32;33348;-78
2021/12/12 12:25:40;;;;;;;;;;;;;;;7.20;44.99;99674.34;4455530;32;35260;-79
2021/12/12 12:28:08;;;;;;;;;;;;;;;7.18;45.15;99678.88;4473695;32;34333;-79
2021/12/12 12:30:45;;;;;;;;;;;;;;;7.07;45.86;99693.81;4458995;32;33365;-78
2021/12/12 12:33:13;;;;;;;;;;;;;;;7.66;44.44;99689.22;4454045;32;32281;-78
2021/12/12 12:35:46;;;;;;;;;;;;;;;7.77;44.54;99691.19;4467498;32;34161;-79
2021/12/12 12:38:17;;;;;;;;;;;;;;;7.40;45.07;99683.72;4474682;32;33828;-78
2021/12/12 12:41:03;;;;;;;;;;;;;;;7.41;44.14;99689.91;4471239;32;34328;-79
2021/12/12 12:43:49;;;;;;;;;;;;;;;7.81;45.13;99690.06;4469388;32;33164;-79
2021/12/12 12:46:16;;;;;;;;;;;;;;;7.77;45.25;99691.19;4468902;32;34240;-78
2021/12/12 12:48:47;;;;;;;;;;;;;;;6.96;45.67;99692.62;4458168;32;32211;-79
2021/12/12 12:51:17;;;;;;;;;;;;;;;7.14;46.19;99696.00;4470095;32;34293;-78
2021/12/12 12:54:03;;;;;;;;;;;;;;;7.35;46.91;99688.50;4469330;32;33224;-78
2021/12/12 12:56:50;;;;;;;;;;;;;;;7.80;44.66;99691.88;4460185;32;33063;-79
2021/12/12 12:59:36;;;;;;;;;;;;;;;7.47;45.59;99702.84;4471869;32;33604;-79
2021/12/12 13:02:15;;;;;;;;;;;;;;;7.77;44.87;99702.72;4460393;32;35212;-79
2021/12/12 13:05:01;;;;;;;;;;;;;;;7.55;46.30;99703.22;4457236;32;34282;-78
2021/12/12 13:07:41;;;;;;;;;;;;;;;8.03;44.28;99702.88;4473812;32;34615;-78
2021/12/12 13:10:15;;;;;;;;;;;;;;;8.38;41.79;99705.91;4459753;32;33827;-79
2021/12/12 13:12:54;;;;;;;;;;;;;;;7.84;44.45;99719.19;4470377;32;34136;-79
2021/12/12 13:15:31;;;;;;;;;;;;;;;7.54;44.62;99705.97;4473411;32;34170;-79
2021/12/12 13:18:18;;;;;;;;;;;;;;;8.47;42.27;99723.94;4474708;32;33913;-79
2021/12/12 13:21:04;;;;;;;;;;;;;;;8.05;44.46;99722.25;4472338;32;33699;-79
2021/12/12 13:23:44;;;;;;;;;;;;;;;7.85;44.88;99721.72;4460603;32;35033;-79
2021/12/12 13:26:13;;;;;;;;;;;;;;;7.88;43.96;99732.19;4468854;32;34433;-79
2021/12/12 13:28:56;;;;;;;;;;;;;;;8.34;44.21;99734.53;4458964;32;34322;-80
2021/12/12 13:31:27;;;;;;;;;;;;;;;7.97;43.45;99729.91;4441538;32;34336;-79
2021/12/12 13:34:09;;;;;;;;;;;;;;;8.24;42.49;99729.91;4454238;32;34162;-78
2021/12/12 13:36:55;;;;;;;;;;;;;;;8.98;40.89;99745.41;4455222;32;32225;-79